Date,TemperatureHighF,TemperatureAvgF,TemperatureLowF,DewpointHighF,DewpointAvgF,DewpointLowF,HumidityHigh,HumidityAvg,HumidityLow,PressureMaxIn,PressureMinIn,WindSpeedMaxMPH,WindSpeedAvgMPH,GustSpeedMaxMPH,PrecipitationSumIn
2013-9-1,87.9,78.5,72.1,76.0,73.1,71.0,96,84,61,29.98,29.89,10,2,0,0.00
2013-9-2,84.1,73.6,68.1,74.0,67.3,-99.9,98,85,64,30.05,29.91,10,-19,0,0.01
2013-9-3,84.6,76.3,67.2,74.0,70.7,66.0,98,84,58,30.04,29.95,7,1,0,0.00
2013-9-4,84.6,74.0,64.6,70.0,66.1,62.0,97,79,49,30.16,30.03,6,1,0,0.00
2013-9-5,83.8,72.8,62.9,70.0,66.3,62.0,97,82,56,30.21,30.13,7,0,0,0.00
2013-9-6,89.0,74.8,63.7,73.0,68.0,62.0,97,81,54,30.19,30.09,0,0,0,0.00
2013-9-7,88.4,75.7,65.6,72.0,68.6,65.0,98,81,50,30.16,30.05,0,0,0,0.00
2013-9-8,87.3,76.1,64.6,76.0,69.8,64.0,98,82,57,30.08,29.99,8,0,0,0.00
2013-9-9,90.3,76.8,67.8,75.0,71.0,67.0,98,84,57,30.13,30.04,5,0,0,0.00
2013-9-10,89.6,78.0,69.3,74.0,71.3,68.0,97,81,55,30.24,30.13,5,0,0,0.00
2013-9-11,89.6,77.0,67.0,72.0,68.7,66.0,97,78,50,30.26,30.14,5,0,0,0.00
2013-9-12,87.7,75.8,65.8,75.0,68.6,65.0,97,80,52,30.14,29.96,9,1,0,0.00
2013-9-13,80.6,72.3,63.4,70.0,63.4,55.0,97,76,45,30.00,29.92,14,2,0,0.00
2013-9-14,79.0,65.9,55.2,61.0,55.8,52.0,91,72,44,30.11,30.00,7,0,0,0.00
2013-9-15,82.4,68.2,56.9,68.0,61.5,55.0,97,81,48,30.19,30.11,9,1,0,0.00
2013-9-16,83.2,70.6,59.3,69.0,61.9,58.0,98,77,46,30.21,30.13,6,1,0,0.00
2013-9-17,83.4,73.3,64.8,71.0,66.2,62.0,91,79,64,30.23,30.14,7,1,0,0.00
2013-9-18,82.2,71.7,64.3,68.0,64.5,61.0,90,79,61,30.24,30.14,6,1,0,0.00
2013-9-19,84.3,72.0,61.5,68.0,64.8,60.0,96,79,57,30.22,30.10,5,0,0,0.00
2013-9-20,85.3,73.9,63.2,69.0,65.8,62.0,96,77,55,30.11,29.90,6,1,0,0.00
2013-9-21,72.4,68.3,61.3,71.0,65.9,57.0,96,92,85,29.90,29.79,13,2,0,0.03
2013-9-22,75.5,63.9,53.8,61.0,56.9,52.0,96,79,50,29.96,29.87,9,2,0,0.00
2013-9-23,81.9,67.0,54.4,64.0,59.4,53.0,95,79,52,30.04,29.95,6,0,0,0.00
2013-9-24,70.8,66.9,62.3,67.0,64.5,60.0,95,92,87,30.04,29.90,8,1,0,0.00
2013-9-25,76.5,68.3,64.6,69.0,65.9,63.0,97,92,78,29.93,29.85,1,0,0,0.00
2013-9-26,78.9,69.2,63.3,67.0,63.8,62.0,96,84,61,30.06,29.92,7,0,0,0.00
2013-9-27,80.6,67.7,58.6,66.0,60.1,57.0,98,79,47,30.19,30.06,0,0,0,0.00
2013-9-28,78.3,65.6,56.1,61.0,58.0,55.0,97,79,51,30.26,30.14,8,0,0,0.00
2013-9-29,74.6,63.7,52.7,62.0,57.4,52.0,97,82,58,30.19,30.07,5,0,0,0.00
2013-9-30,75.5,64.5,58.5,63.0,59.2,57.0,94,84,61,30.13,30.04,5,0,0,0.00